createdAt,value
2022-12-18T00:01:25.643Z,22.95
2022-12-18T00:03:53.447Z,20.48
2022-12-18T00:06:21.091Z,20.75
2022-12-18T00:08:48.674Z,15.35
2022-12-18T00:11:17.675Z,20.55
2022-12-18T00:13:44.561Z,22.75
2022-12-18T00:16:16.940Z,20.88
2022-12-18T00:18:43.919Z,18.75
2022-12-18T00:21:12.800Z,19.35
2022-12-18T00:23:40.899Z,19.85
2022-12-18T00:26:11.747Z,19.80
2022-12-18T00:28:38.283Z,20.92
2022-12-18T00:31:07.704Z,25.55
2022-12-18T00:33:35.270Z,21.88
2022-12-18T00:36:07.659Z,19.10
2022-12-18T00:38:35.025Z,21.15
2022-12-18T00:41:02.020Z,20.30
2022-12-18T00:43:28.882Z,26.25
2022-12-18T00:45:55.644Z,23.73
2022-12-18T00:48:23.051Z,23.15
2022-12-18T00:50:50.208Z,22.17
2022-12-18T00:53:17.060Z,18.52
2022-12-18T00:55:43.926Z,23.40
2022-12-18T00:58:11.496Z,20.25
2022-12-18T01:00:38.998Z,20.98
2022-12-18T01:03:06.215Z,22.08
2022-12-18T01:05:32.924Z,21.90
2022-12-18T01:08:00.329Z,18.58
2022-12-18T01:10:26.923Z,24.77
2022-12-18T01:12:57.853Z,22.00
2022-12-18T01:15:24.349Z,25.58
2022-12-18T01:17:53.583Z,25.40
2022-12-18T01:20:20.572Z,26.70
2022-12-18T01:22:47.383Z,22.35
2022-12-18T01:25:13.877Z,21.60
2022-12-18T01:27:40.532Z,17.30
2022-12-18T01:30:07.758Z,24.25
2022-12-18T01:32:34.592Z,23.73
2022-12-18T01:35:04.940Z,22.33
2022-12-18T01:37:31.465Z,18.25
2022-12-18T01:39:58.019Z,20.67
2022-12-18T01:42:24.585Z,26.92
2022-12-18T01:44:59.998Z,22.92
2022-12-18T01:47:43.738Z,24.10
2022-12-18T01:50:46.324Z,21.98
2022-12-18T01:53:16.754Z,26.30
2022-12-18T01:55:51.241Z,23.20
2022-12-18T01:58:18.646Z,23.80
2022-12-18T02:00:45.541Z,27.27
2022-12-18T02:03:12.864Z,28.70
2022-12-18T02:05:39.456Z,26.65
2022-12-18T02:08:16.204Z,23.75
2022-12-18T02:10:55.227Z,20.10
2022-12-18T02:13:44.823Z,19.35
2022-12-18T02:16:42.166Z,26.45
2022-12-18T02:19:37.055Z,26.20
2022-12-18T02:22:32.330Z,26.00
2022-12-18T02:25:17.000Z,24.33
2022-12-18T02:27:47.456Z,23.65
2022-12-18T02:30:15.495Z,24.95
2022-12-18T02:32:47.255Z,25.20
2022-12-18T02:35:20.137Z,23.58
2022-12-18T02:37:48.832Z,23.25
2022-12-18T02:40:18.072Z,26.52
2022-12-18T02:42:44.986Z,26.42
2022-12-18T02:45:15.227Z,24.75
2022-12-18T02:47:44.515Z,29.20
2022-12-18T02:50:36.955Z,27.88
2022-12-18T02:53:37.538Z,23.45
2022-12-18T02:56:22.565Z,27.30
2022-12-18T02:59:01.626Z,26.88
2022-12-18T03:01:44.125Z,20.50
2022-12-18T03:04:16.105Z,27.35
2022-12-18T03:06:52.703Z,27.42
2022-12-18T03:09:25.412Z,20.63
2022-12-18T03:12:24.606Z,26.30
2022-12-18T03:15:05.025Z,29.00
2022-12-18T03:17:33.757Z,24.25
2022-12-18T03:20:08.434Z,25.98
2022-12-18T03:22:38.518Z,25.05
2022-12-18T03:25:09.839Z,25.95
2022-12-18T03:27:43.163Z,21.30
2022-12-18T03:30:13.797Z,29.08
2022-12-18T03:32:49.887Z,28.13
2022-12-18T03:35:24.155Z,28.60
2022-12-18T03:37:51.052Z,26.60
2022-12-18T03:40:18.216Z,30.48
2022-12-18T03:42:56.141Z,28.95
2022-12-18T03:45:38.305Z,26.95
2022-12-18T03:48:30.025Z,27.10
2022-12-18T03:51:10.031Z,24.77
2022-12-18T03:54:10.870Z,28.38
2022-12-18T03:56:48.418Z,29.92
2022-12-18T03:59:17.545Z,24.60
2022-12-18T04:01:48.613Z,30.38
2022-12-18T04:04:18.700Z,29.13
2022-12-18T04:06:47.898Z,22.65
2022-12-18T04:09:15.633Z,25.05
2022-12-18T04:11:47.508Z,26.48
2022-12-18T04:14:17.877Z,24.67
2022-12-18T04:16:45.301Z,22.52
2022-12-18T04:19:15.258Z,25.40
2022-12-18T04:21:43.978Z,25.25
2022-12-18T04:24:12.448Z,27.63
2022-12-18T04:26:44.957Z,23.52
2022-12-18T04:29:22.657Z,23.35
2022-12-18T04:31:49.552Z,26.08
2022-12-18T04:34:16.865Z,22.63
2022-12-18T04:36:49.452Z,28.30
2022-12-18T04:39:16.618Z,23.15
2022-12-18T04:41:43.701Z,24.65
2022-12-18T04:44:10.246Z,27.92
2022-12-18T04:46:36.809Z,22.77
2022-12-18T04:49:03.373Z,25.02
2022-12-18T04:51:29.895Z,24.70
2022-12-18T04:53:56.426Z,29.60
2022-12-18T04:56:23.503Z,29.05
2022-12-18T04:58:50.353Z,26.02
2022-12-18T05:01:18.714Z,22.83
2022-12-18T05:03:45.766Z,22.88
2022-12-18T05:06:12.706Z,26.67
2022-12-18T05:08:39.468Z,24.20
2022-12-18T05:11:07.458Z,28.38
2022-12-18T05:13:34.265Z,28.30
2022-12-18T05:16:00.901Z,26.98
2022-12-18T05:18:27.967Z,25.30
2022-12-18T05:20:55.429Z,25.48
2022-12-18T05:23:23.418Z,23.40
2022-12-18T05:25:53.542Z,26.42
2022-12-18T05:28:20.923Z,26.27
2022-12-18T05:30:55.895Z,26.80
2022-12-18T05:33:24.674Z,25.55
2022-12-18T05:35:52.844Z,22.45
2022-12-18T05:38:20.787Z,25.35
2022-12-18T05:40:49.046Z,27.35
2022-12-18T05:43:20.989Z,25.98
2022-12-18T05:45:48.962Z,26.67
2022-12-18T05:48:16.548Z,24.00
2022-12-18T05:50:48.081Z,25.77
2022-12-18T05:53:20.379Z,29.98
2022-12-18T05:55:47.475Z,23.77
2022-12-18T05:58:15.386Z,26.92
2022-12-18T06:00:46.832Z,28.40
2022-12-18T06:03:14.287Z,23.15
2022-12-18T06:05:43.432Z,25.15
2022-12-18T06:08:11.473Z,22.20
2022-12-18T06:10:38.520Z,23.27
2022-12-18T06:13:07.095Z,26.58
2022-12-18T06:15:34.221Z,24.90
2022-12-18T06:18:01.738Z,25.60
2022-12-18T06:20:33.215Z,24.40
2022-12-18T06:23:00.395Z,25.50
2022-12-18T06:25:27.102Z,20.50
2022-12-18T06:27:53.643Z,28.27
2022-12-18T06:30:20.514Z,23.58
2022-12-18T06:32:53.078Z,25.00
2022-12-18T06:35:23.137Z,25.67
2022-12-18T06:37:49.633Z,23.52
2022-12-18T06:40:16.257Z,25.10
2022-12-18T06:42:43.022Z,24.98
2022-12-18T06:45:10.000Z,22.75
2022-12-18T06:47:36.591Z,24.58
2022-12-18T06:50:03.732Z,23.35
2022-12-18T06:52:32.920Z,26.15
2022-12-18T06:54:59.426Z,20.60
2022-12-18T06:57:25.968Z,25.38
2022-12-18T06:59:52.474Z,24.17
2022-12-18T07:02:19.185Z,28.52
2022-12-18T07:04:47.775Z,23.48
2022-12-18T07:07:15.254Z,25.23
2022-12-18T07:09:41.782Z,21.95
2022-12-18T07:12:08.940Z,27.27
2022-12-18T07:14:35.460Z,28.20
2022-12-18T07:17:02.576Z,35.60
2022-12-18T07:19:30.426Z,35.00
2022-12-18T07:21:57.597Z,42.35
2022-12-18T07:24:24.236Z,48.35
2022-12-18T07:26:50.802Z,35.85
2022-12-18T07:29:17.323Z,39.00
2022-12-18T07:31:44.102Z,43.63
2022-12-18T07:34:12.649Z,45.30
2022-12-18T07:36:39.501Z,30.45
2022-12-18T07:39:06.085Z,43.05
2022-12-18T07:41:32.692Z,61.88
2022-12-18T07:44:11.160Z,39.80
2022-12-18T07:46:37.779Z,33.70
2022-12-18T07:49:04.360Z,38.08
2022-12-18T07:51:31.612Z,45.33
2022-12-18T07:53:58.299Z,43.90
2022-12-18T07:56:29.524Z,37.95
2022-12-18T07:58:57.354Z,32.65
2022-12-18T08:01:24.209Z,32.83
2022-12-18T08:03:52.162Z,32.97
2022-12-18T08:06:19.517Z,36.85
2022-12-18T08:08:55.891Z,37.75
2022-12-18T08:11:23.566Z,38.13
2022-12-18T08:13:50.183Z,40.88
2022-12-18T08:16:16.776Z,42.20
2022-12-18T08:18:43.708Z,65.40
2022-12-18T08:21:15.807Z,75.65
2022-12-18T08:23:43.745Z,68.28
2022-12-18T08:26:12.089Z,57.33
2022-12-18T08:28:38.892Z,44.35
2022-12-18T08:31:05.854Z,48.00
2022-12-18T08:33:33.482Z,37.75
2022-12-18T08:36:01.168Z,47.55
2022-12-18T08:38:27.769Z,48.88
2022-12-18T08:41:03.576Z,49.80
2022-12-18T08:43:49.121Z,56.92
2022-12-18T08:46:15.662Z,45.08
2022-12-18T08:48:43.051Z,39.55
2022-12-18T08:51:12.698Z,45.13
2022-12-18T08:53:40.178Z,54.15
2022-12-18T08:56:08.907Z,58.67
2022-12-18T08:58:35.470Z,56.50
2022-12-18T09:01:07.160Z,54.72
2022-12-18T09:03:34.146Z,47.45
2022-12-18T09:06:00.926Z,49.13
2022-12-18T09:08:28.404Z,36.80
2022-12-18T09:10:57.549Z,34.05
2022-12-18T09:13:24.299Z,41.88
2022-12-18T09:15:53.294Z,38.75
2022-12-18T09:18:21.692Z,39.70
2022-12-18T09:20:48.517Z,37.30
2022-12-18T09:23:15.552Z,34.67
2022-12-18T09:25:42.185Z,32.03
2022-12-18T09:28:17.034Z,30.33
2022-12-18T09:30:46.783Z,31.45
2022-12-18T09:33:13.700Z,30.58
2022-12-18T09:35:42.277Z,30.65
2022-12-18T09:38:13.146Z,29.58
2022-12-18T09:40:46.037Z,29.73
2022-12-18T09:43:45.254Z,31.33
2022-12-18T09:46:28.160Z,35.13
2022-12-18T09:49:00.481Z,34.15
2022-12-18T09:51:33.516Z,39.13
2022-12-18T09:54:04.579Z,36.55
2022-12-18T09:56:38.562Z,36.88
2022-12-18T09:59:06.284Z,40.40
2022-12-18T10:01:43.256Z,39.90
2022-12-18T10:04:11.288Z,41.28
2022-12-18T10:06:49.585Z,39.95
2022-12-18T10:10:06.996Z,40.85
2022-12-18T10:12:39.586Z,42.17
2022-12-18T10:15:16.916Z,43.85
2022-12-18T10:17:53.091Z,42.85
2022-12-18T10:20:46.316Z,40.10
2022-12-18T10:23:29.271Z,39.67
2022-12-18T10:26:26.745Z,44.88
2022-12-18T10:28:55.340Z,42.13
2022-12-18T10:31:24.728Z,50.22
2022-12-18T10:33:52.433Z,50.47
2022-12-18T10:36:19.185Z,47.90
2022-12-18T10:38:45.767Z,46.00
2022-12-18T10:41:18.347Z,44.10
2022-12-18T10:43:45.247Z,43.65
2022-12-18T10:46:11.793Z,44.40
2022-12-18T10:48:48.467Z,41.03
2022-12-18T10:51:21.196Z,40.30
2022-12-18T10:53:53.909Z,42.67
2022-12-18T10:56:22.141Z,42.90
2022-12-18T10:59:04.935Z,37.22
2022-12-18T11:01:49.527Z,40.05
2022-12-18T11:04:20.112Z,37.25
2022-12-18T11:07:07.804Z,39.70
2022-12-18T11:09:38.014Z,40.78
2022-12-18T11:12:23.501Z,33.85
2022-12-18T11:14:52.875Z,33.03
2022-12-18T11:17:28.496Z,38.28
2022-12-18T11:20:00.549Z,42.45
2022-12-18T11:22:32.376Z,37.75
2022-12-18T11:28:04.282Z,34.90
2022-12-18T11:30:33.489Z,36.83
2022-12-18T11:33:21.874Z,32.35
2022-12-18T11:35:53.771Z,37.15
2022-12-18T11:38:36.814Z,37.20
2022-12-18T11:41:45.679Z,37.53
2022-12-18T11:44:19.334Z,36.70
2022-12-18T11:46:52.577Z,33.47
2022-12-18T11:49:37.047Z,33.35
2022-12-18T11:52:22.214Z,31.45
2022-12-18T11:54:52.757Z,34.83
2022-12-18T11:57:43.285Z,31.80
2022-12-18T12:00:23.496Z,34.28
2022-12-18T12:03:10.744Z,32.72
2022-12-18T12:05:51.039Z,32.67
2022-12-18T12:08:30.682Z,32.95
2022-12-18T12:11:11.244Z,33.13
2022-12-18T12:14:03.646Z,32.28
2022-12-18T12:16:47.864Z,31.23
2022-12-18T12:19:17.197Z,42.60
2022-12-18T12:21:53.554Z,42.28
2022-12-18T12:24:49.163Z,44.95
2022-12-18T12:27:49.281Z,38.85
2022-12-18T12:30:40.623Z,36.97
2022-12-18T12:33:07.224Z,35.53
2022-12-18T12:36:01.446Z,38.67
2022-12-18T12:38:42.329Z,39.33
2022-12-18T12:41:34.440Z,37.60
2022-12-18T12:44:08.869Z,36.90
2022-12-18T12:46:41.362Z,37.90
2022-12-18T12:49:16.497Z,37.40
2022-12-18T12:51:48.702Z,34.30
2022-12-18T12:54:22.947Z,38.88
2022-12-18T12:56:54.741Z,37.25
2022-12-18T13:02:07.596Z,37.33
2022-12-18T13:04:46.602Z,33.80
2022-12-18T13:07:21.554Z,39.75
2022-12-18T13:10:20.855Z,38.40
2022-12-18T13:13:00.737Z,35.38
2022-12-18T13:15:39.735Z,39.05
2022-12-18T13:18:06.646Z,44.20
2022-12-18T13:20:40.965Z,41.28
2022-12-18T13:23:29.397Z,44.58
2022-12-18T13:26:01.391Z,35.03
2022-12-18T13:28:37.737Z,35.35
2022-12-18T13:31:04.744Z,39.47
2022-12-18T13:34:02.073Z,41.40
2022-12-18T13:36:30.315Z,43.28
2022-12-18T13:39:28.884Z,39.83
2022-12-18T13:42:06.081Z,43.80
2022-12-18T13:44:40.828Z,57.95
2022-12-18T13:47:26.647Z,64.22
2022-12-18T13:49:53.896Z,63.45
2022-12-18T13:52:25.734Z,55.78
2022-12-18T13:57:33.638Z,40.95
2022-12-18T14:00:26.210Z,42.65
2022-12-18T14:02:52.971Z,62.22
2022-12-18T14:05:23.658Z,56.83
2022-12-18T14:07:51.536Z,59.33
2022-12-18T14:10:45.585Z,52.35
2022-12-18T14:13:09.899Z,52.53
2022-12-18T14:15:43.671Z,46.00
2022-12-18T14:18:16.479Z,43.92
2022-12-18T14:20:49.220Z,46.40
2022-12-18T14:23:36.959Z,43.13
2022-12-18T14:26:21.221Z,48.13
2022-12-18T14:28:48.263Z,47.90
2022-12-18T14:31:33.049Z,39.53
2022-12-18T14:33:59.653Z,42.90
2022-12-18T14:36:28.631Z,44.50
2022-12-18T14:38:57.531Z,48.70
2022-12-18T14:41:25.465Z,44.28
2022-12-18T14:43:54.854Z,43.75
2022-12-18T14:46:33.582Z,42.60
2022-12-18T14:49:02.973Z,47.13
2022-12-18T14:51:32.505Z,44.30
2022-12-18T14:54:02.430Z,44.20
2022-12-18T14:56:45.321Z,43.50
2022-12-18T14:59:24.665Z,48.38
2022-12-18T15:02:23.595Z,50.90
2022-12-18T15:05:13.453Z,49.70
2022-12-18T15:07:46.384Z,47.58
2022-12-18T15:10:16.595Z,51.85
2022-12-18T15:12:45.554Z,48.85
2022-12-18T15:15:34.138Z,54.47
2022-12-18T15:18:09.786Z,48.00
2022-12-18T15:21:00.772Z,49.15
2022-12-18T15:23:29.033Z,52.42
2022-12-18T15:26:00.684Z,52.10
2022-12-18T15:28:33.241Z,55.05
2022-12-18T15:31:06.445Z,56.78
2022-12-18T15:33:36.646Z,56.72
2022-12-18T15:36:06.082Z,56.75
2022-12-18T15:38:33.152Z,50.25
2022-12-18T15:40:59.791Z,47.03
2022-12-18T15:43:36.231Z,47.60
2022-12-18T15:46:32.348Z,51.97
2022-12-18T15:49:02.077Z,44.53
2022-12-18T15:51:33.043Z,58.03
2022-12-18T15:54:04.590Z,56.45
2022-12-18T15:56:50.497Z,55.83
2022-12-18T15:59:19.692Z,60.03
2022-12-18T16:01:48.989Z,55.83
2022-12-18T16:04:18.761Z,52.72
2022-12-18T16:07:13.372Z,52.92
2022-12-18T16:09:31.906Z,58.97
2022-12-18T16:11:59.525Z,56.03
2022-12-18T16:14:30.090Z,48.15
2022-12-18T16:17:02.801Z,56.72
2022-12-18T16:19:30.694Z,58.85
2022-12-18T16:21:58.952Z,53.17
2022-12-18T16:24:28.965Z,60.53
2022-12-18T16:26:57.621Z,64.13
2022-12-18T16:29:28.067Z,61.30
2022-12-18T16:31:59.965Z,60.33
2022-12-18T16:37:08.207Z,59.10
2022-12-18T16:39:36.024Z,52.25
2022-12-18T16:42:13.391Z,63.80
2022-12-18T16:44:39.937Z,63.60
2022-12-18T16:47:06.740Z,62.72
2022-12-18T16:49:36.080Z,50.63
2022-12-18T16:52:03.830Z,58.70
2022-12-18T16:54:30.504Z,57.58
2022-12-18T16:56:58.008Z,50.17
2022-12-18T16:59:26.697Z,69.85
2022-12-18T17:01:53.522Z,52.15
2022-12-18T17:04:20.191Z,56.78
2022-12-18T17:06:51.767Z,53.58
2022-12-18T17:09:28.401Z,53.85
2022-12-18T17:11:55.262Z,55.28
2022-12-18T17:14:24.384Z,66.53
2022-12-18T17:17:19.162Z,63.00
2022-12-18T17:19:38.766Z,60.47
2022-12-18T17:22:05.462Z,61.95
2022-12-18T17:24:35.244Z,56.90
2022-12-18T17:27:03.156Z,63.65
2022-12-18T17:29:30.157Z,58.20
2022-12-18T17:31:57.288Z,56.35
2022-12-18T17:34:24.349Z,57.55
2022-12-18T17:36:51.015Z,51.88
2022-12-18T17:39:19.922Z,50.97
2022-12-18T17:41:47.726Z,58.03
2022-12-18T17:44:14.586Z,56.30
2022-12-18T17:46:41.209Z,63.42
2022-12-18T17:49:07.960Z,67.18
2022-12-18T17:51:34.510Z,62.90
2022-12-18T17:54:01.229Z,57.30
2022-12-18T17:56:28.578Z,64.75
2022-12-18T17:58:55.429Z,58.20
2022-12-18T18:01:25.000Z,60.35
2022-12-18T18:03:54.146Z,57.03
2022-12-18T18:06:21.296Z,56.30
2022-12-18T18:08:48.394Z,57.17
2022-12-18T18:11:36.962Z,60.58
2022-12-18T18:14:07.082Z,62.08
2022-12-18T18:16:45.362Z,58.85
2022-12-18T18:19:15.983Z,53.95
2022-12-18T18:21:45.758Z,61.25
2022-12-18T18:24:16.324Z,64.05
2022-12-18T18:26:43.192Z,54.00
2022-12-18T18:29:15.125Z,52.33
2022-12-18T18:31:41.891Z,61.03
2022-12-18T18:34:13.734Z,50.67
2022-12-18T18:39:07.131Z,58.13
2022-12-18T18:41:35.647Z,55.38
2022-12-18T18:44:02.789Z,55.40
2022-12-18T18:46:29.291Z,51.80
2022-12-18T18:48:56.146Z,56.80
2022-12-18T18:51:23.004Z,58.35
2022-12-18T18:53:52.180Z,57.60
2022-12-18T18:59:08.324Z,57.92
2022-12-18T19:01:35.108Z,52.47
2022-12-18T19:04:03.138Z,60.70
2022-12-18T19:06:30.074Z,54.42
2022-12-18T19:08:58.865Z,57.53
2022-12-18T19:11:44.619Z,62.95
2022-12-18T19:14:14.231Z,58.17
2022-12-18T19:16:41.555Z,62.90
2022-12-18T19:19:08.503Z,55.65
2022-12-18T19:21:37.297Z,62.38
2022-12-18T19:24:06.655Z,85.25
2022-12-18T19:26:36.508Z,52.17
2022-12-18T19:29:08.632Z,63.10
2022-12-18T19:31:37.389Z,81.10
2022-12-18T19:34:06.907Z,80.28
2022-12-18T19:36:37.120Z,66.10
2022-12-18T19:39:12.140Z,66.95
2022-12-18T19:41:38.935Z,65.63
2022-12-18T19:44:07.677Z,59.80
2022-12-18T19:46:34.927Z,57.35
2022-12-18T19:49:02.235Z,60.63
2022-12-18T19:51:30.948Z,59.58
2022-12-18T19:54:01.461Z,62.50
2022-12-18T19:56:31.363Z,62.78
2022-12-18T19:58:58.631Z,60.50
2022-12-18T20:01:26.641Z,71.50
2022-12-18T20:03:55.282Z,55.03
2022-12-18T20:06:35.207Z,59.17
2022-12-18T20:09:07.101Z,64.72
2022-12-18T20:11:38.825Z,57.08
2022-12-18T20:14:12.655Z,64.22
2022-12-18T20:16:40.407Z,59.08
2022-12-18T20:19:07.871Z,61.00
2022-12-18T20:21:34.410Z,60.35
2022-12-18T20:24:01.971Z,57.13
2022-12-18T20:26:28.563Z,53.20
2022-12-18T20:28:55.546Z,64.82
2022-12-18T20:31:22.309Z,59.88
2022-12-18T20:33:59.581Z,61.50
2022-12-18T20:36:27.114Z,77.25
2022-12-18T20:38:58.180Z,62.67
2022-12-18T20:41:27.360Z,67.97
2022-12-18T20:44:04.646Z,60.47
2022-12-18T20:46:33.945Z,64.57
2022-12-18T20:49:03.487Z,64.68
2022-12-18T20:51:31.619Z,60.95
2022-12-18T20:53:59.619Z,70.05
2022-12-18T20:56:30.533Z,65.18
2022-12-18T20:58:58.724Z,71.20
2022-12-18T21:01:26.779Z,53.80
2022-12-18T21:03:54.379Z,61.55
2022-12-18T21:06:24.888Z,61.42
2022-12-18T21:08:51.576Z,67.55
2022-12-18T21:11:39.353Z,69.95
2022-12-18T21:14:19.152Z,60.47
2022-12-18T21:16:46.362Z,56.10
2022-12-18T21:19:24.342Z,65.80
2022-12-18T21:21:58.766Z,55.55
2022-12-18T21:24:25.656Z,63.53
2022-12-18T21:26:53.912Z,58.20
2022-12-18T21:29:23.497Z,51.00
2022-12-18T21:31:51.850Z,58.92
2022-12-18T21:34:21.286Z,58.03
2022-12-18T21:36:49.553Z,60.13
2022-12-18T21:39:16.998Z,67.15
2022-12-18T21:42:03.917Z,50.38
2022-12-18T21:44:30.884Z,50.85
2022-12-18T21:49:48.664Z,47.92
2022-12-18T21:52:15.176Z,52.97
2022-12-18T21:54:41.713Z,50.00
2022-12-18T21:57:08.659Z,53.53
2022-12-18T21:59:37.470Z,46.63
2022-12-18T22:02:11.500Z,55.25
2022-12-18T22:04:38.066Z,52.33
2022-12-18T22:07:06.162Z,43.67
2022-12-18T22:09:32.906Z,47.97
2022-12-18T22:11:59.533Z,44.15
2022-12-18T22:14:26.092Z,47.58
2022-12-18T22:16:52.726Z,46.53
2022-12-18T22:19:20.213Z,50.22
2022-12-18T22:21:48.611Z,44.08
2022-12-18T22:24:23.742Z,44.80
2022-12-18T22:26:52.892Z,48.40
2022-12-18T22:29:44.882Z,46.22
2022-12-18T22:32:16.259Z,47.75
2022-12-18T22:34:43.593Z,45.17
2022-12-18T22:37:12.007Z,44.00
2022-12-18T22:39:38.832Z,34.88
2022-12-18T22:42:06.246Z,43.67
2022-12-18T22:44:32.747Z,38.00
2022-12-18T22:47:06.379Z,42.65
2022-12-18T22:49:35.152Z,40.60
2022-12-18T22:52:03.947Z,35.13
2022-12-18T22:54:30.709Z,35.75
2022-12-18T22:56:57.570Z,39.00
2022-12-18T22:59:24.641Z,35.05
2022-12-18T23:01:54.542Z,36.63
2022-12-18T23:04:31.191Z,28.00
2022-12-18T23:07:04.540Z,31.05
2022-12-18T23:09:31.230Z,37.65
2022-12-18T23:11:57.716Z,40.35
2022-12-18T23:14:24.238Z,32.25
2022-12-18T23:16:50.792Z,32.85
2022-12-18T23:19:19.957Z,30.10
2022-12-18T23:21:46.522Z,31.60
2022-12-18T23:24:13.454Z,34.95
2022-12-18T23:26:40.014Z,34.38
2022-12-18T23:29:07.304Z,34.30
2022-12-18T23:31:36.409Z,34.67
2022-12-18T23:34:03.873Z,29.85
2022-12-18T23:36:32.299Z,29.10
2022-12-18T23:39:12.346Z,30.55
2022-12-18T23:41:41.908Z,25.98
2022-12-18T23:44:09.988Z,26.98
2022-12-18T23:46:37.547Z,26.10
2022-12-18T23:49:05.841Z,29.55
2022-12-18T23:51:33.157Z,30.15
2022-12-18T23:54:02.239Z,31.70
2022-12-18T23:56:30.075Z,32.33
2022-12-18T23:58:57.349Z,26.85
